createdAt,value
2022-10-02T00:01:47.205Z,100528.44
2022-10-02T00:04:19.753Z,100534.09
2022-10-02T00:06:49.200Z,100535.72
2022-10-02T00:09:21.878Z,100547.03
2022-10-02T00:11:51.662Z,100553.38
2022-10-02T00:14:21.321Z,100548.13
2022-10-02T00:16:51.980Z,100542.25
2022-10-02T00:19:21.299Z,100551.84
2022-10-02T00:22:11.472Z,100552.47
2022-10-02T00:24:43.818Z,100562.50
2022-10-02T00:27:21.578Z,100557.94
2022-10-02T00:29:51.283Z,100562.09
2022-10-02T00:32:26.719Z,100555.47
2022-10-02T00:35:32.319Z,100558.72
2022-10-02T00:38:04.025Z,100555.81
2022-10-02T00:40:40.714Z,100551.78
2022-10-02T00:43:16.984Z,100563.91
2022-10-02T00:46:03.481Z,100555.81
2022-10-02T00:48:48.634Z,100570.72
2022-10-02T00:51:29.117Z,100571.38
2022-10-02T00:54:03.098Z,100568.50
2022-10-02T00:56:36.441Z,100561.47
2022-10-02T00:59:14.290Z,100566.84
2022-10-02T01:01:46.006Z,100576.53
2022-10-02T01:04:14.443Z,100569.81
2022-10-02T01:06:43.541Z,100573.94
2022-10-02T01:09:12.279Z,100571.75
2022-10-02T01:11:40.773Z,100570.13
2022-10-02T01:14:09.009Z,100572.41
2022-10-02T01:16:37.022Z,100578.38
2022-10-02T01:19:05.015Z,100583.94
2022-10-02T01:21:38.481Z,100586.66
2022-10-02T01:24:12.054Z,100601.28
2022-10-02T01:26:41.154Z,100585.94
2022-10-02T01:29:08.889Z,100607.22
2022-10-02T01:31:37.247Z,100607.88
2022-10-02T01:34:05.422Z,100611.03
2022-10-02T01:36:33.972Z,100609.47
2022-10-02T01:39:02.908Z,100607.75
2022-10-02T01:41:30.889Z,100605.59
2022-10-02T01:44:01.885Z,100607.91
2022-10-02T01:46:34.028Z,100617.38
2022-10-02T01:49:14.995Z,100607.50
2022-10-02T01:51:54.009Z,100607.75
2022-10-02T01:54:28.019Z,100614.66
2022-10-02T01:57:05.571Z,100609.59
2022-10-02T01:59:43.633Z,100619.03
2022-10-02T02:02:19.259Z,100616.31
2022-10-02T02:04:54.795Z,100617.59
2022-10-02T02:07:30.502Z,100619.69
2022-10-02T02:10:01.944Z,100620.69
2022-10-02T02:12:35.515Z,100626.31
2022-10-02T02:15:08.576Z,100637.84
2022-10-02T02:17:41.870Z,100629.84
2022-10-02T02:20:11.520Z,100643.03
2022-10-02T02:22:42.344Z,100636.38
2022-10-02T02:25:12.456Z,100644.84
2022-10-02T02:27:42.583Z,100644.41
2022-10-02T02:30:13.548Z,100637.16
2022-10-02T02:32:44.927Z,100647.53
2022-10-02T02:35:17.280Z,100648.47
2022-10-02T02:37:46.482Z,100637.06
2022-10-02T02:40:17.093Z,100648.06
2022-10-02T02:42:49.368Z,100648.13
2022-10-02T02:45:20.775Z,100653.94
2022-10-02T02:47:51.474Z,100639.53
2022-10-02T02:50:22.530Z,100641.56
2022-10-02T02:52:53.742Z,100647.91
2022-10-02T02:55:23.804Z,100650.00
2022-10-02T02:57:54.683Z,100640.75
2022-10-02T03:00:24.235Z,100646.22
2022-10-02T03:02:54.520Z,100655.72
2022-10-02T03:05:24.184Z,100661.38
2022-10-02T03:07:53.982Z,100652.63
2022-10-02T03:10:33.235Z,100649.53
2022-10-02T03:13:14.051Z,100657.28
2022-10-02T03:15:52.392Z,100657.50
2022-10-02T03:18:33.233Z,100661.94
2022-10-02T03:21:08.254Z,100661.44
2022-10-02T03:23:40.635Z,100666.44
2022-10-02T03:26:13.761Z,100668.97
2022-10-02T03:28:55.606Z,100671.88
2022-10-02T03:31:27.760Z,100676.81
2022-10-02T03:33:56.128Z,100669.09
2022-10-02T03:36:24.649Z,100665.19
2022-10-02T03:39:12.519Z,100669.66
2022-10-02T03:41:40.881Z,100659.25
2022-10-02T03:44:08.782Z,100674.34
2022-10-02T03:46:38.209Z,100676.34
2022-10-02T03:49:06.306Z,100665.66
2022-10-02T03:51:33.986Z,100676.97
2022-10-02T03:54:01.850Z,100676.66
2022-10-02T03:56:37.046Z,100675.72
2022-10-02T03:59:06.782Z,100670.00
2022-10-02T04:01:38.541Z,100680.16
2022-10-02T04:04:09.521Z,100677.84
2022-10-02T04:06:43.455Z,100671.34
2022-10-02T04:09:13.673Z,100658.38
2022-10-02T04:11:44.370Z,100670.19
2022-10-02T04:14:17.551Z,100666.72
2022-10-02T04:16:50.546Z,100674.09
2022-10-02T04:19:22.435Z,100667.63
2022-10-02T04:21:55.555Z,100674.88
2022-10-02T04:24:29.739Z,100676.28
2022-10-02T04:27:03.444Z,100679.84
2022-10-02T04:29:35.188Z,100687.31
2022-10-02T04:32:12.205Z,100681.28
2022-10-02T04:34:40.120Z,100691.22
2022-10-02T04:37:31.885Z,100692.22
2022-10-02T04:40:08.687Z,100698.56
2022-10-02T04:42:44.966Z,100684.06
2022-10-02T04:45:26.569Z,100694.88
2022-10-02T04:48:11.241Z,100690.84
2022-10-02T04:50:45.073Z,100687.59
2022-10-02T04:53:33.665Z,100694.53
2022-10-02T04:56:22.674Z,100684.19
2022-10-02T04:59:07.130Z,100693.44
2022-10-02T05:01:47.200Z,100694.56
2022-10-02T05:04:37.238Z,100692.53
2022-10-02T05:07:20.405Z,100687.28
2022-10-02T05:09:53.843Z,100691.28
2022-10-02T05:12:32.431Z,100681.38
2022-10-02T05:15:22.366Z,100683.88
2022-10-02T05:18:08.297Z,100684.88
2022-10-02T05:20:57.410Z,100689.78
2022-10-02T05:23:39.655Z,100695.00
2022-10-02T05:26:32.617Z,100689.41
2022-10-02T05:29:25.010Z,100696.97
2022-10-02T05:32:07.950Z,100692.56
2022-10-02T05:34:51.180Z,100700.41
2022-10-02T05:37:35.214Z,100703.44
2022-10-02T05:40:06.852Z,100711.09
2022-10-02T05:42:42.300Z,100717.66
2022-10-02T05:45:20.397Z,100717.63
2022-10-02T05:47:48.391Z,100713.44
2022-10-02T05:50:18.340Z,100721.06
2022-10-02T05:52:53.786Z,100713.66
2022-10-02T05:55:26.246Z,100700.31
2022-10-02T05:57:57.300Z,100718.53
2022-10-02T06:00:31.341Z,100721.81
2022-10-02T06:03:08.147Z,100730.28
2022-10-02T06:05:44.691Z,100726.13
2022-10-02T06:08:17.591Z,100740.13
2022-10-02T06:10:49.236Z,100732.91
2022-10-02T06:13:22.303Z,100738.25
2022-10-02T06:15:52.751Z,100743.91
2022-10-02T06:18:22.566Z,100752.25
2022-10-02T06:20:53.376Z,100744.78
2022-10-02T06:23:25.730Z,100738.16
2022-10-02T06:25:55.512Z,100749.53
2022-10-02T06:28:27.794Z,100744.84
2022-10-02T06:30:58.628Z,100737.91
2022-10-02T06:33:28.165Z,100735.53
2022-10-02T06:36:08.496Z,100736.75
2022-10-02T06:38:48.651Z,100748.69
2022-10-02T06:41:20.630Z,100745.09
2022-10-02T06:44:08.119Z,100745.63
2022-10-02T06:46:42.789Z,100740.50
2022-10-02T06:49:16.735Z,100755.09
2022-10-02T06:51:53.970Z,100747.84
2022-10-02T06:54:41.445Z,100750.75
2022-10-02T06:57:33.204Z,100740.03
2022-10-02T07:00:10.330Z,100737.66
2022-10-02T07:02:54.851Z,100740.69
2022-10-02T07:05:35.296Z,100730.19
2022-10-02T07:08:07.689Z,100737.56
2022-10-02T07:10:39.327Z,100725.22
2022-10-02T07:13:21.028Z,100737.00
2022-10-02T07:16:09.841Z,100736.22
2022-10-02T07:18:49.940Z,100723.28
2022-10-02T07:21:23.473Z,100730.34
2022-10-02T07:24:01.422Z,100729.41
2022-10-02T07:26:48.439Z,100733.97
2022-10-02T07:29:26.775Z,100748.25
2022-10-02T07:32:05.491Z,100748.19
2022-10-02T07:34:40.654Z,100755.78
2022-10-02T07:37:17.555Z,100743.66
2022-10-02T07:39:55.672Z,100745.09
2022-10-02T07:42:39.913Z,100736.78
2022-10-02T07:45:29.557Z,100747.28
2022-10-02T07:48:22.222Z,100754.59
2022-10-02T07:51:31.579Z,100766.38
2022-10-02T07:54:08.410Z,100755.91
2022-10-02T07:56:37.417Z,100760.50
2022-10-02T07:59:10.759Z,100755.94
2022-10-02T08:01:40.802Z,100757.09
2022-10-02T08:04:12.090Z,100767.28
2022-10-02T08:06:40.192Z,100760.56
2022-10-02T08:09:11.891Z,100761.03
2022-10-02T08:11:49.202Z,100754.75
2022-10-02T08:14:22.337Z,100754.75
2022-10-02T08:16:51.678Z,100752.50
2022-10-02T08:19:21.697Z,100755.78
2022-10-02T08:21:52.590Z,100748.53
2022-10-02T08:24:23.321Z,100746.69
2022-10-02T08:26:54.769Z,100751.44
2022-10-02T08:29:28.080Z,100758.88
2022-10-02T08:31:57.246Z,100750.00
2022-10-02T08:34:26.134Z,100749.88
2022-10-02T08:37:09.267Z,100746.22
2022-10-02T08:39:50.446Z,100735.56
2022-10-02T08:42:47.571Z,100746.66
2022-10-02T08:45:42.676Z,100730.94
2022-10-02T08:48:41.470Z,100738.34
2022-10-02T08:51:27.168Z,100740.47
2022-10-02T08:54:19.373Z,100745.13
2022-10-02T08:56:58.808Z,100740.56
2022-10-02T08:59:43.841Z,100740.97
2022-10-02T09:02:49.123Z,100740.13
2022-10-02T09:05:47.013Z,100745.31
2022-10-02T09:08:57.144Z,100730.38
2022-10-02T09:11:53.243Z,100736.72
2022-10-02T09:14:53.531Z,100735.13
2022-10-02T09:17:44.409Z,100731.56
2022-10-02T09:20:39.284Z,100746.50
2022-10-02T09:23:39.434Z,100748.63
2022-10-02T09:26:18.571Z,100740.97
2022-10-02T09:29:10.117Z,100743.47
2022-10-02T09:32:19.453Z,100753.94
2022-10-02T09:35:24.594Z,100747.59
2022-10-02T09:38:27.179Z,100741.69
2022-10-02T09:41:27.917Z,100737.31
2022-10-02T09:44:22.505Z,100733.97
2022-10-02T09:47:19.236Z,100728.13
2022-10-02T09:50:16.244Z,100720.72
2022-10-02T09:53:13.428Z,100707.88
2022-10-02T09:56:07.781Z,100709.41
2022-10-02T09:59:04.098Z,100720.09
2022-10-02T10:01:45.823Z,100707.28
2022-10-02T10:05:05.026Z,100720.38
2022-10-02T10:08:09.308Z,100729.28
2022-10-02T10:10:53.975Z,100716.09
2022-10-02T10:13:59.729Z,100717.13
2022-10-02T10:17:08.936Z,100717.28
2022-10-02T10:20:05.214Z,100708.25
2022-10-02T10:23:03.520Z,100706.09
2022-10-02T10:25:56.162Z,100728.31
2022-10-02T10:28:55.206Z,100765.50
2022-10-02T10:32:13.552Z,100784.59
2022-10-02T10:35:04.577Z,100780.22
2022-10-02T10:38:30.735Z,100789.47
2022-10-02T10:41:39.141Z,100774.28
2022-10-02T10:44:51.235Z,100792.75
2022-10-02T10:48:02.297Z,100788.03
2022-10-02T10:50:39.764Z,100786.72
2022-10-02T10:53:17.983Z,100765.06
2022-10-02T10:56:03.446Z,100769.63
2022-10-02T10:58:44.128Z,100756.09
2022-10-02T11:01:15.328Z,100752.13
2022-10-02T11:04:25.146Z,100753.81
2022-10-02T11:07:16.318Z,100752.09
2022-10-02T11:10:07.561Z,100763.84
2022-10-02T11:12:44.502Z,100749.72
2022-10-02T11:15:24.748Z,100762.44
2022-10-02T11:18:05.250Z,100745.28
2022-10-02T11:20:57.661Z,100744.97
2022-10-02T11:23:40.375Z,100758.66
2022-10-02T11:26:40.590Z,100757.25
2022-10-02T11:29:23.872Z,100759.28
2022-10-02T11:32:27.999Z,100760.91
2022-10-02T11:35:23.369Z,100767.50
2022-10-02T11:38:26.691Z,100765.59
2022-10-02T11:41:13.136Z,100772.38
2022-10-02T11:44:04.759Z,100787.34
2022-10-02T11:46:52.606Z,100779.69
2022-10-02T11:50:01.093Z,100782.75
2022-10-02T11:52:48.245Z,100775.81
2022-10-02T11:55:22.305Z,100755.88
2022-10-02T11:57:52.177Z,100744.25
2022-10-02T12:00:57.335Z,100731.84
2022-10-02T12:03:30.560Z,100732.78
2022-10-02T12:06:04.501Z,100717.63
2022-10-02T12:08:46.801Z,100741.47
2022-10-02T12:11:19.248Z,100736.25
2022-10-02T12:14:06.272Z,100742.41
2022-10-02T12:16:42.926Z,100734.03
2022-10-02T12:19:21.380Z,100744.41
2022-10-02T12:22:15.987Z,100754.06
2022-10-02T12:25:07.633Z,100743.34
2022-10-02T12:27:44.539Z,100743.72
2022-10-02T12:30:14.234Z,100725.53
2022-10-02T12:33:15.959Z,100737.41
2022-10-02T12:36:09.168Z,100738.94
2022-10-02T12:38:52.244Z,100738.75
2022-10-02T12:41:34.404Z,100735.53
2022-10-02T12:44:22.110Z,100728.03
2022-10-02T12:47:20.991Z,100732.69
2022-10-02T12:49:55.028Z,100733.75
2022-10-02T12:52:52.545Z,100727.22
2022-10-02T12:55:46.905Z,100718.59
2022-10-02T12:58:23.588Z,100741.97
2022-10-02T13:01:16.698Z,100727.59
2022-10-02T13:04:17.066Z,100734.78
2022-10-02T13:07:14.695Z,100725.53
2022-10-02T13:09:47.858Z,100729.31
2022-10-02T13:12:32.731Z,100734.34
2022-10-02T13:15:17.582Z,100745.22
2022-10-02T13:17:50.361Z,100738.38
2022-10-02T13:20:24.762Z,100743.50
2022-10-02T13:23:00.589Z,100733.13
2022-10-02T13:25:34.978Z,100725.53
2022-10-02T13:28:16.047Z,100725.47
2022-10-02T13:30:48.959Z,100724.41
2022-10-02T13:33:34.976Z,100710.25
2022-10-02T13:36:15.038Z,100709.94
2022-10-02T13:38:59.475Z,100715.31
2022-10-02T13:41:39.057Z,100716.50
2022-10-02T13:44:18.351Z,100709.06
2022-10-02T13:47:01.789Z,100719.66
2022-10-02T13:49:40.307Z,100725.81
2022-10-02T13:52:17.718Z,100721.63
2022-10-02T13:55:04.727Z,100717.56
2022-10-02T13:57:44.909Z,100708.22
2022-10-02T14:00:22.622Z,100715.00
2022-10-02T14:03:00.306Z,100717.75
2022-10-02T14:05:35.987Z,100710.91
2022-10-02T14:08:15.816Z,100715.81
2022-10-02T14:10:54.162Z,100720.19
2022-10-02T14:13:45.146Z,100727.47
2022-10-02T14:16:30.537Z,100729.56
2022-10-02T14:19:20.126Z,100726.25
2022-10-02T14:21:59.133Z,100726.38
2022-10-02T14:24:59.943Z,100734.13
2022-10-02T14:28:15.772Z,100733.47
2022-10-02T14:30:56.329Z,100729.31
2022-10-02T14:33:35.016Z,100740.59
2022-10-02T14:36:08.122Z,100739.53
2022-10-02T14:38:41.693Z,100738.41
2022-10-02T14:41:21.282Z,100748.78
2022-10-02T14:44:01.191Z,100750.66
2022-10-02T14:46:40.600Z,100756.84
2022-10-02T14:49:26.980Z,100752.84
2022-10-02T14:52:21.606Z,100756.03
2022-10-02T14:55:23.009Z,100746.97
2022-10-02T14:58:01.748Z,100756.50
2022-10-02T15:00:36.466Z,100759.38
2022-10-02T15:03:47.135Z,100757.59
2022-10-02T15:06:36.955Z,100751.41
2022-10-02T15:09:08.502Z,100762.69
2022-10-02T15:12:01.673Z,100759.78
2022-10-02T15:14:38.103Z,100752.13
2022-10-02T15:17:26.923Z,100766.59
2022-10-02T15:19:58.892Z,100756.28
2022-10-02T15:22:30.077Z,100772.94
2022-10-02T15:24:59.111Z,100780.75
2022-10-02T15:27:28.268Z,100779.53
2022-10-02T15:30:06.152Z,100763.53
2022-10-02T15:33:02.245Z,100776.91
2022-10-02T15:35:36.649Z,100781.84
2022-10-02T15:38:37.162Z,100785.31
2022-10-02T15:41:34.918Z,100782.31
2022-10-02T15:44:10.230Z,100794.81
2022-10-02T15:46:49.622Z,100785.81
2022-10-02T15:49:20.851Z,100792.91
2022-10-02T15:52:04.319Z,100788.19
2022-10-02T15:54:40.382Z,100789.66
2022-10-02T15:57:23.116Z,100796.28
2022-10-02T16:00:01.928Z,100798.97
2022-10-02T16:03:01.051Z,100812.97
2022-10-02T16:05:40.273Z,100808.81
2022-10-02T16:08:41.974Z,100814.38
2022-10-02T16:11:45.670Z,100820.81
2022-10-02T16:14:15.450Z,100818.31
2022-10-02T16:17:04.848Z,100816.28
2022-10-02T16:19:45.098Z,100829.53
2022-10-02T16:22:23.495Z,100834.31
2022-10-02T16:25:00.559Z,100833.56
2022-10-02T16:27:32.812Z,100835.22
2022-10-02T16:30:12.458Z,100838.38
2022-10-02T16:33:02.798Z,100847.00
2022-10-02T16:36:08.176Z,100845.72
2022-10-02T16:38:46.303Z,100848.63
2022-10-02T16:41:31.104Z,100848.63
2022-10-02T16:44:07.706Z,100857.47
2022-10-02T16:46:38.728Z,100869.59
2022-10-02T16:49:15.705Z,100865.56
2022-10-02T16:51:51.539Z,100865.50
2022-10-02T16:54:25.057Z,100873.00
2022-10-02T16:56:55.445Z,100874.09
2022-10-02T16:59:27.183Z,100871.00
2022-10-02T17:02:17.015Z,100876.09
2022-10-02T17:04:53.752Z,100876.66
2022-10-02T17:07:30.020Z,100873.72
2022-10-02T17:10:03.268Z,100872.56
2022-10-02T17:12:33.918Z,100874.84
2022-10-02T17:15:08.208Z,100888.63
2022-10-02T17:17:49.701Z,100885.75
2022-10-02T17:20:21.111Z,100892.44
2022-10-02T17:22:56.867Z,100881.97
2022-10-02T17:25:29.598Z,100886.59
2022-10-02T17:28:00.229Z,100896.19
2022-10-02T17:30:31.496Z,100906.94
2022-10-02T17:33:07.840Z,100914.06
2022-10-02T17:35:42.288Z,100925.50
2022-10-02T17:38:29.436Z,100932.94
2022-10-02T17:41:04.751Z,100937.44
2022-10-02T17:43:39.020Z,100937.56
2022-10-02T17:46:30.199Z,100945.56
2022-10-02T17:48:58.915Z,100942.88
2022-10-02T17:51:52.351Z,100950.53
2022-10-02T17:55:01.128Z,100945.50
2022-10-02T17:57:42.702Z,100960.16
2022-10-02T18:00:13.719Z,100954.16
2022-10-02T18:02:45.300Z,100959.44
2022-10-02T18:05:26.931Z,100974.19
2022-10-02T18:08:15.719Z,100969.41
2022-10-02T18:10:49.957Z,100973.63
2022-10-02T18:13:42.622Z,100965.94
2022-10-02T18:16:22.893Z,100976.84
2022-10-02T18:19:15.116Z,100984.53
2022-10-02T18:21:48.358Z,100978.88
2022-10-02T18:24:27.966Z,100978.81
2022-10-02T18:27:09.579Z,100992.47
2022-10-02T18:29:49.482Z,100996.50
2022-10-02T18:32:31.743Z,100997.66
2022-10-02T18:35:16.611Z,100995.50
2022-10-02T18:37:57.458Z,100997.16
2022-10-02T18:40:28.735Z,101000.22
2022-10-02T18:43:11.043Z,100996.34
2022-10-02T18:45:45.199Z,101002.84
2022-10-02T18:48:23.284Z,101005.78
2022-10-02T18:51:06.359Z,101007.88
2022-10-02T18:53:43.804Z,101010.06
2022-10-02T18:56:13.274Z,101007.16
2022-10-02T18:58:53.281Z,101011.84
2022-10-02T19:01:47.048Z,101004.31
2022-10-02T19:04:37.202Z,101019.97
2022-10-02T19:07:10.709Z,101028.00
2022-10-02T19:09:38.489Z,101032.91
2022-10-02T19:12:15.657Z,101026.88
2022-10-02T19:14:45.835Z,101029.44
2022-10-02T19:17:16.865Z,101032.16
2022-10-02T19:19:44.900Z,101035.25
2022-10-02T19:22:19.188Z,101038.31
2022-10-02T19:24:49.433Z,101054.59
2022-10-02T19:27:23.162Z,101044.44
2022-10-02T19:29:55.823Z,101055.91
2022-10-02T19:32:27.321Z,101052.59
2022-10-02T19:34:57.779Z,101055.94
2022-10-02T19:37:27.177Z,101057.84
2022-10-02T19:39:55.033Z,101058.81
2022-10-02T19:42:26.771Z,101057.47
2022-10-02T19:44:57.393Z,101059.56
2022-10-02T19:47:28.095Z,101064.25
2022-10-02T19:49:56.868Z,101063.91
2022-10-02T19:52:36.945Z,101060.78
2022-10-02T19:55:07.350Z,101063.91
2022-10-02T19:57:40.033Z,101078.28
2022-10-02T20:00:15.403Z,101076.41
2022-10-02T20:02:46.614Z,101081.41
2022-10-02T20:05:21.993Z,101085.19
2022-10-02T20:07:52.412Z,101075.59
2022-10-02T20:10:23.506Z,101072.25
2022-10-02T20:12:55.335Z,101086.28
2022-10-02T20:15:39.480Z,101086.22
2022-10-02T20:18:07.018Z,101079.50
2022-10-02T20:20:35.815Z,101084.00
2022-10-02T20:23:06.808Z,101092.34
2022-10-02T20:25:39.046Z,101086.91
2022-10-02T20:28:14.769Z,101080.22
2022-10-02T20:30:47.054Z,101096.41
2022-10-02T20:33:18.156Z,101098.91
2022-10-02T20:35:47.976Z,101099.34
2022-10-02T20:38:19.706Z,101095.19
2022-10-02T20:40:53.158Z,101099.47
2022-10-02T20:43:23.791Z,101092.47
2022-10-02T20:45:57.339Z,101103.81
2022-10-02T20:49:08.106Z,101107.94
2022-10-02T20:52:01.846Z,101106.94
2022-10-02T20:54:49.107Z,101106.25
2022-10-02T20:57:59.706Z,101116.66
2022-10-02T21:00:28.828Z,101101.84
2022-10-02T21:03:17.459Z,101118.97
2022-10-02T21:06:03.463Z,101126.06
2022-10-02T21:08:56.890Z,101126.13
2022-10-02T21:11:35.703Z,101123.44
2022-10-02T21:14:30.806Z,101124.19
2022-10-02T21:17:33.464Z,101127.13
2022-10-02T21:20:50.812Z,101125.69
2022-10-02T21:23:46.469Z,101134.94
2022-10-02T21:26:27.738Z,101131.38
2022-10-02T21:29:18.119Z,101141.72
2022-10-02T21:32:03.643Z,101130.44
2022-10-02T21:34:43.190Z,101142.78
2022-10-02T21:37:20.564Z,101147.28
2022-10-02T21:40:12.599Z,101139.75
2022-10-02T21:43:06.640Z,101142.25
2022-10-02T21:46:08.274Z,101148.09
2022-10-02T21:49:15.572Z,101146.53
2022-10-02T21:52:25.878Z,101153.63
2022-10-02T21:55:25.981Z,101156.84
2022-10-02T21:58:25.489Z,101159.22
2022-10-02T22:01:12.035Z,101155.63
2022-10-02T22:03:56.960Z,101158.78
2022-10-02T22:06:38.551Z,101162.66
2022-10-02T22:09:17.523Z,101172.44
2022-10-02T22:11:53.494Z,101165.50
2022-10-02T22:14:24.077Z,101163.69
2022-10-02T22:16:57.604Z,101167.81
2022-10-02T22:19:31.926Z,101165.00
2022-10-02T22:22:03.809Z,101163.22
2022-10-02T22:24:34.734Z,101170.84
2022-10-02T22:27:05.996Z,101170.31
2022-10-02T22:29:37.788Z,101168.47
2022-10-02T22:32:26.676Z,101179.34
2022-10-02T22:34:56.624Z,101185.91
2022-10-02T22:37:28.534Z,101181.63
2022-10-02T22:40:01.843Z,101177.81
2022-10-02T22:42:32.385Z,101169.34
2022-10-02T22:45:01.051Z,101188.72
2022-10-02T22:47:31.116Z,101187.53
2022-10-02T22:49:59.141Z,101184.50
2022-10-02T22:52:27.582Z,101185.41
2022-10-02T22:54:56.746Z,101181.00
2022-10-02T22:57:29.012Z,101189.22
2022-10-02T22:59:59.344Z,101178.28
2022-10-02T23:02:29.337Z,101177.22
2022-10-02T23:05:00.109Z,101199.84
2022-10-02T23:07:29.781Z,101192.31
2022-10-02T23:09:59.013Z,101191.09
2022-10-02T23:12:36.568Z,101206.34
2022-10-02T23:15:06.650Z,101201.38
2022-10-02T23:17:36.124Z,101198.19
2022-10-02T23:20:06.408Z,101205.91
2022-10-02T23:22:34.615Z,101201.03
2022-10-02T23:25:02.778Z,101201.44
2022-10-02T23:27:32.791Z,101203.19
2022-10-02T23:30:01.791Z,101201.84
2022-10-02T23:32:32.741Z,101206.44
2022-10-02T23:35:02.524Z,101214.09
2022-10-02T23:37:33.612Z,101211.00
2022-10-02T23:40:04.840Z,101205.78
2022-10-02T23:42:32.198Z,101219.94
2022-10-02T23:45:00.864Z,101218.63
2022-10-02T23:47:30.350Z,101227.53
2022-10-02T23:49:58.628Z,101228.63
2022-10-02T23:52:36.108Z,101237.63
2022-10-02T23:55:10.528Z,101236.13
2022-10-02T23:57:42.002Z,101236.09
